Latest Coastal Weather Observations for Wyndham Airport

IDD60701

Issued at 2:11 pm CST Sunday 22 October 2017 (issued every 10 minutes, with the page automatically refreshed every 10 minutes)

About coastal observations | Map of coastal stations | Coastal observations for NT | Marine services | Other Formats
Station Details ID: 001006 Name: WYNDHAM AERO Lat: -15.51 Lon: 128.15 Height: 3.8 m
Data from the previous 72 hours. | See also: Recent months at Wyndham Airport
Date/Time
CST
Temp
°C
Wind Pressure Rain since
9am
mm
Weather Cloud Vis
km
Sea
Height
m
Swell
Dir  Spd
kts
Gust
kts
hPa Trend Height
m
Period
s
Dir
22/02:00pm 39.3 ENE 7 12 1008.3 - 0.0 - - - - - - -
22/01:30pm 38.4 NE 10 16 1008.7 - 0.0 - - - - - - -
22/01:00pm 39.0 SE 13 19 1009.2 - 0.0 - - - - - - -
22/12:30pm 38.2 ENE 12 19 1009.8 - 0.0 - - - - - - -
22/12:00pm 37.8 ENE 14 21 1010.5 - 0.0 - - - - - - -
22/11:30am 37.9 ENE 16 22 1010.8 - 0.0 - - - - - - -
22/11:00am 38.1 ENE 16 22 1011.2 - 0.0 - - - - - - -
22/10:30am 36.2 ENE 15 24 1011.6 - 0.0 - - - - - - -
22/10:00am 35.8 E 16 22 1011.8 - 0.0 - - - - - - -
22/09:30am 34.8 E 18 25 1011.9 - 0.0 - - - - - - -
22/09:00am 34.3 ESE 12 22 1012.0 - 0.0 - - - - - - -
22/08:30am 32.9 ESE 12 17 1011.9 - 0.0 - - - - - - -
22/08:00am 30.6 ESE 4 6 1011.6 - 0.0 - - - - - - -
22/07:30am 28.5 E 5 6 1011.2 - 0.0 - - - - - - -
22/07:00am 26.9 E 6 7 1011.2 - 0.0 - - - - - - -
22/06:30am 25.2 ESE 6 6 1010.7 - 0.0 - - - - - - -
22/06:00am 25.3 ESE 4 6 1010.3 - 0.0 - - - - - - -
22/05:30am 26.1 CALM 0 0 1010.0 - 0.0 - - - - - - -
22/05:00am 26.4 CALM 0 0 1009.6 - 0.0 - - - - - - -
22/04:30am 26.3 CALM 0 0 1009.4 - 0.0 - - - - - - -
22/04:00am 26.6 CALM 0 0 1009.3 - 0.0 - - - - - - -
22/03:30am 26.5 NNE 3 5 1009.3 - 0.0 - - - - - - -
22/03:00am 26.5 E 4 6 1009.5 - 0.0 - - - - - - -
22/02:30am 27.1 N 3 5 1009.6 - 0.0 - - - - - - -
22/02:00am 27.0 E 5 5 1009.7 - 0.0 - - - - - - -
22/01:30am 27.8 ESE 7 8 1009.9 - 0.0 - - - - - - -
22/01:00am 27.6 ESE 6 8 1010.0 - 0.0 - - - - - - -
22/12:30am 28.3 ESE 6 8 1010.1 - 0.0 - - - - - - -
22/12:00am 29.3 ESE 7 10 1010.3 - 0.0 - - - - - - -
 
Date/Time
CST
Temp
°C
Wind Pressure Rain since
9am
mm
Weather Cloud Vis
km
Sea
Height
m
Swell
Dir  Spd
kts
Gust
kts
hPa Trend Height
m
Period
s
Dir
21/11:30pm 29.7 SE 8 10 1010.4 - 0.0 - - - - - - -
21/11:00pm 29.6 ESE 5 7 1010.5 - 0.0 - - - - - - -
21/10:30pm 30.0 ESE 7 8 1010.3 - 0.0 - - - - - - -
21/10:00pm 30.4 SW 2 5 1010.2 - 0.0 - - - - - - -
21/09:30pm 31.4 WNW 4 6 1009.9 - 0.0 - - - - - - -
21/09:00pm 32.0 NNE 8 11 1009.8 - 0.0 - - - - - - -
21/08:30pm 32.9 N 7 9 1009.4 - 0.0 - - - - - - -
21/08:00pm 33.8 WSW 4 6 1009.1 - 0.0 - - - - - - -
21/07:30pm 34.2 ENE 11 18 1008.7 - 0.0 - - - - - - -
21/07:00pm 35.2 N 10 13 1008.4 - 0.0 - - - - - - -
21/06:30pm 37.4 ENE 7 11 1008.2 - 0.0 - - - - - - -
21/06:00pm 38.6 E 9 14 1008.1 - 0.0 - - - - - - -
21/05:30pm 39.4 ESE 10 15 1007.8 - 0.0 - - - - - - -
21/05:00pm 39.4 SSE 8 13 1007.8 - 0.0 - - - - - - -
21/04:30pm 39.2 ESE 7 11 1008.0 - 0.0 - - - - - - -
21/04:00pm 39.1 E 12 18 1008.1 - 0.0 - - - - - - -
21/03:30pm 39.0 ENE 7 14 1008.3 - 0.0 - - - - - - -
21/03:00pm 39.4 ENE 8 18 1008.8 - 0.0 - - - - - - -
21/02:30pm 38.9 ENE 10 16 1009.6 - 0.0 - - - - - - -
21/02:00pm 37.6 E 9 15 1010.3 - 0.0 - - - - - - -
21/01:30pm 38.5 ENE 10 17 1011.0 - 0.0 - - - - - - -
21/01:00pm 37.9 E 11 17 1011.8 - 0.0 - - - - - - -
21/12:30pm 36.6 E 13 20 1012.4 - 0.0 - - - - - - -
21/12:00pm 37.3 ENE 12 17 1012.6 - 0.0 - - - - - - -
21/11:30am 37.5 E 11 16 1013.0 - 0.0 - - - - - - -
21/11:00am 37.3 ENE 13 19 1013.3 - 0.0 - - - - - - -
21/10:30am 36.5 E 15 20 1013.5 - 0.4 - - - - - - -
21/10:00am 35.9 E 15 19 1013.4 - 0.4 - - - - - - -
21/09:30am 35.5 E 11 18 1013.4 - 0.4 - - - - - - -
21/09:00am 34.3 ESE 11 14 1013.3 - 0.4 - - - - - - -
21/08:30am 31.7 ESE 7 9 1013.2 - 0.4 - - - - - - -
21/08:00am 30.8 E 5 7 1013.0 - 0.4 - - - - - - -
21/07:30am 29.4 E 4 5 1012.3 - 0.4 - - - - - - -
21/07:00am 27.4 E 4 5 1011.8 - 0.4 - - - - - - -
21/06:30am 27.0 ENE 4 5 1011.4 - 0.4 - - - - - - -
21/06:00am 26.6 NE 3 4 1011.0 - 0.4 - - - - - - -
21/05:30am 26.0 ESE 4 5 1010.6 - 0.4 - - - - - - -
21/05:00am 26.2 E 3 4 1010.6 - 0.4 - - - - - - -
21/04:30am 26.3 NE 3 4 1010.5 - 0.4 - - - - - - -
21/04:00am 26.2 NE 3 4 1010.2 - 0.4 - - - - - - -
21/03:30am 26.9 ESE 5 6 1010.1 - 0.4 - - - - - - -
21/03:00am 26.4 ESE 6 8 1010.3 - 0.4 - - - - - - -
21/02:30am 27.1 CALM 0 0 1010.3 - 0.4 - - - - - - -
21/02:00am 27.3 N 4 5 1010.5 - 0.4 - - - - - - -
21/01:30am 27.4 N 3 4 1010.5 - 0.4 - - - - - - -
21/01:00am 27.3 CALM 0 0 1010.8 - 0.4 - - - - - - -
21/12:30am 28.1 CALM 0 3 1010.9 - 0.4 - - - - - - -
21/12:00am 28.2 CALM 0 0 1010.9 - 0.4 - - - - - - -
 
Date/Time
CST
Temp
°C
Wind Pressure Rain since
9am
mm
Weather Cloud Vis
km
Sea
Height
m
Swell
Dir  Spd
kts
Gust
kts
hPa Trend Height
m
Period
s
Dir
20/11:30pm 28.9 WSW 5 6 1011.1 - 0.4 - - - - - - -
20/11:00pm 29.5 W 4 7 1011.2 - 0.4 - - - - - - -
20/10:30pm 29.6 W 5 6 1011.1 - 0.4 - - - - - - -
20/10:00pm 29.4 WSW 5 8 1011.1 - 0.4 - - - - - - -
20/09:30pm 29.6 S 4 7 1011.2 - 0.4 - - - - - - -
20/09:00pm 29.8 N 11 19 1010.9 - 0.4 - - - - - - -
20/08:30pm 29.6 NNE 13 18 1010.8 - 0.4 - - - - - - -
20/08:00pm 29.6 NNE 11 19 1010.7 - 0.4 - - - - - - -
20/07:30pm 31.4 NNE 13 20 1010.2 - 0.4 - - - - - - -
20/07:13pm 32.0 NNE 15 25 1009.8 - 0.4 - - - - - - -
20/07:00pm 32.4 NE 4 6 1009.7 - 0.4 - - - - - - -
20/06:30pm 32.5 NNE 5 9 1008.8 - 0.4 - - - - - - -
20/06:00pm 33.0 NNE 9 12 1008.5 - 0.4 - - - - - - -
20/05:30pm 34.4 NE 9 13 1008.4 - 0.2 - - - - - - -
20/05:00pm 33.5 ESE 6 8 1008.1 - 0.2 - - - - - - -
20/04:30pm 31.1 N 12 16 1008.0 - 0.2 Recent precip. - - - - - -
20/04:00pm 29.5 NNE 15 22 1008.5 - 0.2 - - - - - - -
20/03:45pm 27.7 NE 23 32 1008.7 - 0.2 - - - - - - -
20/03:38pm 26.9 E 26 32 1009.0 - 0.2 - - - - - - -
20/03:30pm 27.8 E 29 40 1009.7 - 0.0 - - - - - - -
20/03:20pm 30.9 E 28 40 1009.4 - 0.0 - - - - - - -
20/03:03pm 34.2 NNE 11 42 1008.6 - 0.0 - - - - - - -
20/03:02pm 35.8 NNE 9 42 1008.2 - 0.0 - - - - - - -
20/03:00pm 38.0 N 5 11 1008.2 - 0.0 - - - - - - -
20/02:30pm 38.9 ESE 7 11 1008.1 - 0.0 - - - - - - -
20/02:00pm 38.9 NW 7 10 1008.6 - 0.0 - - - - - - -
20/01:30pm 38.4 NNE 4 8 1009.4 - 0.0 - - - - - - -
20/01:00pm 37.8 S 6 9 1010.2 - 0.0 - - - - - - -
20/12:30pm 37.0 W 7 10 1010.7 - 0.0 - - - - - - -
20/12:00pm 36.8 W 8 11 1011.1 - 0.0 - - - - - - -
20/11:30am 35.8 WNW 8 13 1011.7 - 0.0 - - - - - - -
20/11:00am 34.9 WSW 5 9 1012.1 - 0.0 - - - - - - -
20/10:30am 33.8 WSW 6 8 1012.4 - 0.0 - - - - - - -
20/10:00am 33.1 WSW 4 8 1012.7 - 0.0 - - - - - - -
20/09:30am 32.4 SW 4 6 1012.6 - 0.0 - - - - - - -
20/09:00am 31.8 W 5 7 1012.6 - 0.0 - - - - - - -
20/08:30am 30.8 WSW 3 5 1012.1 - 0.0 - - - - - - -
20/08:00am 29.7 NNE 3 4 1011.8 - 0.0 - - - - - - -
20/07:30am 28.7 E 5 6 1011.4 - 0.0 - - - - - - -
20/07:00am 27.8 ESE 5 7 1010.8 - 0.0 - - - - - - -
20/06:30am 27.3 E 4 5 1010.4 - 0.0 - - - - - - -
20/06:00am 27.5 ESE 5 6 1010.0 - 0.0 - - - - - - -
20/05:30am 27.5 E 5 6 1009.5 - 0.0 - - - - - - -
20/05:00am 27.8 SE 6 8 1009.1 - 0.0 - - - - - - -
20/04:30am 27.9 ESE 7 8 1009.1 - 0.0 - - - - - - -
20/04:00am 27.8 ESE 6 6 1008.8 - 0.0 - - - - - - -
20/03:30am 27.9 ESE 7 8 1008.8 - 0.0 - - - - - - -
20/03:00am 28.0 E 6 8 1008.8 - 0.0 - - - - - - -
20/02:30am 28.3 E 5 6 1008.3 - 0.0 - - - - - - -
20/02:00am 28.2 E 6 7 1008.5 - 0.0 - - - - - - -
20/01:30am 28.3 E 5 6 1008.4 - 0.0 - - - - - - -
20/01:00am 28.7 E 4 6 1008.7 - 0.0 - - - - - - -
20/12:30am 28.9 SE 7 9 1009.0 - 0.0 - - - - - - -
20/12:00am 28.9 E 6 7 1009.3 - 0.0 - - - - - - -
 
Date/Time
CST
Temp
°C
Wind Pressure Rain since
9am
mm
Weather Cloud Vis
km
Sea
Height
m
Swell
Dir  Spd
kts
Gust
kts
hPa Trend Height
m
Period
s
Dir
19/11:30pm 29.3 SE 5 6 1009.1 - 0.0 - - - - - - -
19/11:00pm 29.7 ESE 5 7 1009.3 - 0.0 - - - - - - -
19/10:30pm 30.5 NNE 3 5 1009.2 - 0.0 - - - - - - -
19/10:00pm 31.0 N 2 4 1009.0 - 0.0 - - - - - - -
19/09:30pm 31.5 SSW 3 5 1008.9 - 0.0 - - - - - - -
19/09:00pm 31.3 SSW 4 6 1008.4 - 0.0 - - - - - - -
19/08:30pm 31.2 N 10 15 1008.0 - 0.0 - - - - - - -
19/08:00pm 31.1 NNE 16 25 1007.7 - 0.0 - - - - - - -
19/07:30pm 31.9 NNE 15 23 1007.1 - 0.0 - - - - - - -
19/07:00pm 33.2 NNE 17 24 1006.8 - 0.0 - - - - - - -
19/06:30pm 35.4 NNE 10 15 1006.2 - 0.0 - - - - - - -
19/06:00pm 36.4 N 10 14 1005.6 - 0.0 - - - - - - -
19/05:30pm 36.8 N 12 17 1005.3 - 0.0 - - - - - - -
19/05:00pm 36.9 N 10 14 1005.2 - 0.0 - - - - - - -
19/04:30pm 37.4 N 11 17 1005.3 - 0.0 - - - - - - -
19/04:00pm 37.5 N 13 18 1005.4 - 0.0 - - - - - - -

Other Formats:

Comma delimited format used in spreadsheet applications
http://www.bom.gov.au/fwo/IDD60701/IDD60701.95214.axf

JavaScript Object Notation format (JSON) in row-major order
http://www.bom.gov.au/fwo/IDD60701/IDD60701.95214.json